Latest Weather Observations for Latrobe Valley

IDV60801

Issued at 10:52 pm EST Monday 6 July 2020 (issued every 10 minutes, with the page automatically refreshed every 10 minutes)

About weather observations | Map of weather stations | Latest weather observations for VIC | Other Formats
Station Details ID: 085280 Name: LATROBE VALLEY AIRPORT Lat: -38.21 Lon: 146.47 Height: 55.7 m
Data from the previous 72 hours. | See also: Recent months at Latrobe Valley
Date/Time
EST
Temp
°C
App
Temp
°C
Dew
Point
°C
Rel
Hum
%
Delta-T
°C
Wind Press
QNH
hPa
Press
MSL
hPa
Rain since
9am
mm
Dir  Spd
km/h
Gust
km/h
Spd
kts
Gust
kts
06/10:30pm 9.8 5.3 8.4 91 0.7 W 22 30 12 16 1030.5 1030.7 0.4
06/10:00pm 10.0 5.6 8.8 92 0.6 W 22 28 12 15 1030.5 1030.7 0.4
06/09:30pm 10.0 6.0 8.9 93 0.5 W 20 26 11 14 1030.5 1030.7 0.4
06/09:28pm 10.0 6.0 8.9 93 0.5 W 20 26 11 14 1030.5 1030.7 0.4
06/09:07pm 10.1 5.3 9.0 93 0.5 W 24 32 13 17 1030.5 1030.7 0.4
06/09:00pm 10.1 4.9 8.7 91 0.7 W 26 32 14 17 1030.5 1030.7 0.4
06/08:30pm 10.3 6.3 8.9 91 0.7 W 20 26 11 14 1030.7 1030.9 0.4
06/08:00pm 10.3 6.2 8.6 89 0.8 WNW 20 24 11 13 1030.6 1030.8 0.4
06/07:30pm 10.5 5.9 8.3 86 1.1 W 22 28 12 15 1030.8 1031.0 0.4
06/07:00pm 10.6 6.1 8.7 88 0.9 W 22 28 12 15 1030.3 1030.5 0.4
06/06:30pm 10.8 7.3 8.6 86 1.1 W 17 22 9 12 1030.2 1030.4 0.4
06/06:00pm 10.7 6.7 9.1 90 0.8 W 20 24 11 13 1029.9 1030.1 0.4
06/05:30pm 10.7 7.0 9.3 91 0.7 W 19 24 10 13 1029.7 1029.9 0.4
06/05:21pm 10.8 7.1 9.4 91 0.7 W 19 22 10 12 1029.7 1029.9 0.4
06/05:19pm 10.8 7.1 9.4 91 0.7 W 19 22 10 12 1029.6 1029.8 0.4
06/05:08pm 10.8 7.1 9.6 92 0.6 WSW 19 22 10 12 1029.6 1029.8 0.4
06/05:00pm 11.1 7.8 9.7 91 0.7 WSW 17 22 9 12 1029.5 1029.7 0.2
06/04:58pm 11.1 7.8 9.7 91 0.7 WSW 17 22 9 12 1029.5 1029.7 0.2
06/04:30pm 11.4 7.6 9.1 86 1.2 W 19 26 10 14 1029.1 1029.3 0.2
06/04:00pm 11.5 7.5 9.1 85 1.2 W 20 28 11 15 1029.3 1029.5 0.2
06/03:30pm 11.7 7.4 9.3 85 1.2 W 22 28 12 15 1029.1 1029.3 0.2
06/03:00pm 11.5 7.8 9.6 88 1.0 WNW 19 26 10 14 1029.0 1029.2 0.2
06/02:30pm 11.2 7.5 9.5 89 0.9 WNW 19 24 10 13 1029.0 1029.2 0.2
06/02:00pm 11.6 8.5 10.2 91 0.7 WNW 17 22 9 12 1029.1 1029.3 0.2
06/01:30pm 11.1 7.5 9.9 92 0.6 WNW 19 24 10 13 1029.3 1029.5 0.2
06/01:10pm 11.0 7.3 10.1 94 0.5 W 20 28 11 15 1029.5 1029.7 0.2
06/01:00pm 10.9 7.4 10.1 95 0.4 WNW 19 24 10 13 1029.5 1029.7 0.2
06/12:41pm 11.0 7.3 10.2 95 0.4 W 20 26 11 14 1029.7 1029.9 0.0
06/12:30pm 10.8 7.0 9.9 94 0.5 W 20 28 11 15 1029.8 1030.0 0.0
06/12:14pm 11.1 7.3 9.7 91 0.7 W 20 28 11 15 1029.9 1030.1 0.0
06/12:00pm 11.1 7.2 9.5 90 0.8 W 20 26 11 14 1030.1 1030.3 0.0
06/11:49am 10.8 6.8 8.9 88 0.9 W 20 30 11 16 1030.3 1030.5 0.0
06/11:30am 11.0 7.1 8.8 86 1.1 W 19 28 10 15 1030.4 1030.6 0.0
06/11:00am 10.6 6.6 8.9 89 0.8 W 20 26 11 14 1030.8 1031.0 0.0
06/10:30am 10.5 6.0 8.6 88 0.9 WNW 22 32 12 17 1030.8 1031.0 0.0
06/10:00am 10.4 7.2 8.5 88 0.9 WNW 15 22 8 12 1030.7 1030.9 0.0
06/09:30am 9.9 7.5 8.5 91 0.7 W 11 17 6 9 1030.7 1030.9 0.0
06/09:00am 9.7 6.1 8.3 91 0.7 WNW 17 22 9 12 1030.5 1030.7 0.4
06/08:30am 9.3 5.3 8.1 92 0.6 W 19 24 10 13 1030.2 1030.4 0.4
06/08:00am 8.8 5.0 7.7 93 0.5 W 17 22 9 12 1030.0 1030.2 0.4
06/07:30am 8.8 4.5 7.9 94 0.4 WNW 20 24 11 13 1029.7 1029.9 0.4
06/07:00am 8.8 4.5 8.0 95 0.4 WNW 20 28 11 15 1029.5 1029.7 0.4
06/06:30am 8.7 4.0 7.9 95 0.4 WNW 22 30 12 16 1028.9 1029.1 0.4
06/06:00am 8.7 4.5 8.1 96 0.3 WNW 20 26 11 14 1028.4 1028.6 0.4
06/05:30am 8.4 3.7 7.8 96 0.3 WNW 22 28 12 15 1028.1 1028.3 0.4
06/05:00am 8.2 4.0 7.6 96 0.3 WNW 19 22 10 12 1028.0 1028.2 0.2
06/04:30am 8.1 5.1 7.7 97 0.2 W 13 17 7 9 1028.1 1028.3 0.2
06/04:00am 8.3 4.6 7.9 97 0.2 WNW 17 19 9 10 1028.0 1028.2 0.2
06/03:30am 8.5 4.4 7.9 96 0.3 W 19 22 10 12 1028.1 1028.3 0.2
06/03:00am 8.9 5.2 8.1 95 0.4 W 17 20 9 11 1028.2 1028.4 0.2
06/02:30am 9.3 5.8 8.7 96 0.3 WNW 17 20 9 11 1028.1 1028.3 0.2
06/02:16am 9.4 5.9 8.8 96 0.3 W 17 22 9 12 1028.2 1028.4 0.2
06/02:00am 9.5 6.0 8.7 95 0.4 W 17 22 9 12 1028.1 1028.3 0.2
06/01:30am 9.5 6.0 8.7 95 0.4 W 17 20 9 11 1028.0 1028.2 0.2
06/01:00am 9.6 5.5 8.7 94 0.4 W 20 26 11 14 1027.8 1028.0 0.2
06/12:30am 9.6 5.6 9.0 96 0.3 W 20 24 11 13 1027.8 1028.0 0.2
06/12:00am 9.7 5.7 9.1 96 0.3 W 20 30 11 16 1027.9 1028.1 0.2
 
Date/Time
EST
Temp
°C
App
Temp
°C
Dew
Point
°C
Rel
Hum
%
Delta-T
°C
Wind Press
QNH
hPa
Press
MSL
hPa
Rain since
9am
mm
Dir  Spd
km/h
Gust
km/h
Spd
kts
Gust
kts
05/11:30pm 9.8 5.8 9.0 95 0.4 W 20 26 11 14 1027.8 1028.0 0.2
05/11:00pm 9.7 5.7 8.9 95 0.4 W 20 30 11 16 1027.8 1028.0 0.2
05/10:52pm 9.7 5.3 8.9 95 0.4 W 22 30 12 16 1027.7 1027.9 0.2
05/10:30pm 9.7 5.9 8.9 95 0.4 W 19 28 10 15 1027.7 1027.9 0.2
05/10:00pm 9.7 5.8 8.8 94 0.4 W 19 22 10 12 1027.5 1027.7 0.2
05/09:30pm 10.0 6.6 9.1 94 0.4 W 17 24 9 13 1027.4 1027.6 0.2
05/09:00pm 10.0 5.9 8.8 92 0.6 W 20 28 11 15 1027.2 1027.4 0.2
05/08:30pm 10.0 6.0 8.3 89 0.8 W 19 24 10 13 1027.1 1027.3 0.2
05/08:00pm 10.1 6.0 8.5 90 0.8 W 20 28 11 15 1027.0 1027.2 0.2
05/07:30pm 10.1 5.6 8.4 89 0.8 W 22 32 12 17 1026.8 1026.9 0.2
05/07:00pm 10.0 6.0 8.3 89 0.8 W 19 24 10 13 1026.6 1026.7 0.2
05/06:30pm 10.2 6.0 8.3 88 0.9 W 20 26 11 14 1026.3 1026.4 0.2
05/06:00pm 10.6 5.6 8.2 85 1.2 WNW 24 32 13 17 1025.9 1026.0 0.2
05/05:30pm 10.9 7.2 8.0 82 1.4 W 17 22 9 12 1025.8 1025.9 0.2
05/05:00pm 11.2 6.8 7.5 78 1.8 W 20 32 11 17 1025.5 1025.6 0.2
05/04:30pm 11.5 7.1 7.6 77 1.9 W 20 24 11 13 1025.3 1025.4 0.2
05/04:00pm 11.5 6.4 7.6 77 1.9 W 24 30 13 16 1025.0 1025.1 0.2
05/03:30pm 12.7 7.2 7.4 70 2.6 WSW 26 33 14 18 1024.9 1025.0 0.2
05/03:00pm 13.1 7.4 6.7 65 3.1 W 26 37 14 20 1024.9 1025.0 0.2
05/02:30pm 13.0 7.9 7.5 69 2.7 W 24 35 13 19 1024.9 1025.0 0.2
05/02:00pm 12.4 8.1 7.7 73 2.3 WSW 20 30 11 16 1024.9 1025.0 0.2
05/01:30pm 12.6 7.0 8.9 78 1.9 WSW 28 33 15 18 1024.9 1025.0 0.2
05/01:00pm 11.8 6.5 8.6 81 1.6 WSW 26 32 14 17 1025.2 1025.3 0.2
05/12:30pm 11.1 5.4 8.3 83 1.4 WSW 28 35 15 19 1025.4 1025.5 0.2
05/12:02pm 11.6 6.6 9.7 88 1.0 W 26 35 14 19 1025.5 1025.6 0.2
05/12:00pm 11.8 7.3 10.2 90 0.8 W 24 32 13 17 1025.5 1025.6 0.2
05/11:59am 11.5 7.0 9.9 90 0.8 W 24 32 13 17 1025.5 1025.6 0.2
05/11:36am 10.4 4.9 9.2 92 0.6 WSW 28 37 15 20 1025.6 1025.7 0.2
05/11:30am 11.0 5.2 9.3 89 0.9 W 30 43 16 23 1025.7 1025.8 0.0
05/11:24am 11.5 6.1 9.4 87 1.1 W 28 35 15 19 1025.7 1025.8 0.0
05/11:00am 12.0 6.6 9.4 84 1.3 W 28 39 15 21 1025.9 1026.0 0.0
05/10:30am 11.6 6.1 9.0 84 1.3 W 28 39 15 21 1025.7 1025.8 0.0
05/10:00am 11.7 5.9 9.4 86 1.2 W 30 41 16 22 1025.6 1025.7 0.0
05/09:30am 10.6 5.4 8.9 89 0.8 W 26 37 14 20 1025.3 1025.4 0.0
05/09:00am 10.4 4.8 8.8 90 0.8 W 28 35 15 19 1024.9 1025.0 1.2
05/08:30am 9.7 4.9 8.8 94 0.4 W 24 32 13 17 1024.6 1024.7 1.2
05/08:00am 9.2 3.9 8.4 95 0.4 W 26 32 14 17 1024.4 1024.5 1.2
05/07:30am 9.0 4.4 8.2 95 0.4 W 22 28 12 15 1024.0 1024.1 1.2
05/07:00am 9.1 4.9 8.2 94 0.4 W 20 28 11 15 1023.9 1024.0 1.2
05/06:30am 9.3 5.1 8.4 94 0.4 W 20 24 11 13 1023.7 1023.8 1.2
05/06:00am 9.3 4.8 8.5 95 0.4 W 22 30 12 16 1023.1 1023.2 1.2
05/05:30am 9.6 5.5 8.8 95 0.4 W 20 28 11 15 1023.0 1023.1 1.2
05/05:00am 9.3 5.7 8.4 94 0.4 W 17 20 9 11 1022.8 1022.9 1.2
05/04:30am 9.5 6.0 8.6 94 0.4 W 17 22 9 12 1022.8 1022.9 1.2
05/04:00am 9.6 6.0 8.5 93 0.5 W 17 22 9 12 1023.0 1023.1 1.2
05/03:30am 9.2 5.2 8.1 93 0.5 W 19 26 10 14 1023.0 1023.1 1.2
05/03:00am 9.6 5.7 8.7 94 0.4 W 19 24 10 13 1023.1 1023.2 1.2
05/02:35am 9.5 5.6 8.7 95 0.4 W 19 26 10 14 1023.1 1023.2 1.2
05/02:30am 9.4 5.5 8.6 95 0.4 W 19 24 10 13 1023.1 1023.2 1.2
05/02:09am 9.7 4.9 8.8 94 0.4 W 24 32 13 17 1022.9 1023.0 1.2
05/02:02am 9.8 5.5 9.2 96 0.3 W 22 28 12 15 1022.8 1022.9 1.2
05/02:00am 9.9 5.6 9.3 96 0.3 W 22 30 12 16 1022.9 1023.0 1.2
05/01:48am 10.1 5.0 9.3 95 0.4 W 26 33 14 18 1022.7 1022.8 1.2
05/01:37am 10.1 5.4 9.2 94 0.4 W 24 33 13 18 1022.8 1022.9 1.0
05/01:30am 10.1 5.3 9.0 93 0.5 W 24 30 13 16 1022.8 1022.9 1.0
05/01:00am 10.2 6.3 9.3 94 0.4 W 20 28 11 15 1022.8 1022.9 1.0
05/12:30am 10.2 5.9 9.3 94 0.4 W 22 30 12 16 1022.7 1022.8 1.0
05/12:00am 10.1 5.7 9.0 93 0.5 W 22 30 12 16 1022.8 1022.9 1.0
 
Date/Time
EST
Temp
°C
App
Temp
°C
Dew
Point
°C
Rel
Hum
%
Delta-T
°C
Wind Press
QNH
hPa
Press
MSL
hPa
Rain since
9am
mm
Dir  Spd
km/h
Gust
km/h
Spd
kts
Gust
kts
04/11:46pm 10.2 6.2 9.1 93 0.5 W 20 28 11 15 1022.8 1022.9 1.0
04/11:30pm 10.2 5.8 9.0 92 0.6 W 22 28 12 15 1022.7 1022.8 1.0
04/11:00pm 10.1 7.0 9.0 93 0.5 W 15 22 8 12 1022.8 1022.9 1.0
04/10:30pm 9.8 6.3 8.7 93 0.5 W 17 22 9 12 1022.5 1022.6 1.0
04/10:00pm 10.3 7.2 8.9 91 0.7 W 15 24 8 13 1022.6 1022.7 1.0
04/09:57pm 10.3 6.8 8.7 90 0.8 W 17 24 9 13 1022.6 1022.7 1.0
04/09:30pm 10.8 6.3 8.7 87 1.0 WSW 22 32 12 17 1022.5 1022.6 1.0
04/09:00pm 10.5 5.6 8.6 88 0.9 WSW 24 32 13 17 1022.2 1022.3 1.0
04/08:45pm 10.4 5.6 9.0 91 0.7 WSW 24 32 13 17 1022.2 1022.3 1.0
04/08:30pm 10.4 6.0 9.0 91 0.7 WSW 22 32 12 17 1022.2 1022.3 1.0
04/08:00pm 10.3 5.6 9.1 92 0.6 WSW 24 33 13 18 1022.0 1022.1 1.0
04/07:39pm 10.6 5.4 9.0 90 0.8 WSW 26 35 14 19 1021.7 1021.8 1.0
04/07:30pm 10.6 5.4 9.0 90 0.8 WSW 26 37 14 20 1021.5 1021.6 1.0
04/07:28pm 10.6 5.4 9.0 90 0.8 WSW 26 37 14 20 1021.5 1021.6 1.0
04/07:00pm 10.5 5.4 9.3 92 0.6 WSW 26 32 14 17 1021.5 1021.6 1.0
04/06:30pm 10.6 6.2 10.3 98 0.2 W 24 30 13 16 1021.1 1021.2 1.0
04/06:06pm 10.6 6.9 10.3 98 0.2 W 20 26 11 14 1021.0 1021.1 1.0
04/06:00pm 10.6 6.9 10.3 98 0.2 W 20 24 11 13 1021.1 1021.2 1.0
04/05:40pm 10.6 6.9 10.3 98 0.2 W 20 26 11 14 1020.8 1020.9 0.8
04/05:38pm 10.6 6.9 10.3 98 0.2 W 20 24 11 13 1020.8 1020.9 0.8
04/05:30pm 10.6 6.9 10.3 98 0.2 W 20 28 11 15 1020.7 1020.8 0.8
04/05:00pm 10.6 5.7 10.1 97 0.3 W 26 37 14 20 1020.5 1020.6 0.6
04/04:33pm 10.5 5.6 9.9 96 0.3 WNW 26 39 14 21 1020.3 1020.4 0.4
04/04:30pm 10.5 5.6 9.9 96 0.3 WNW 26 35 14 19 1020.3 1020.4 0.4
04/04:22pm 10.5 5.6 9.9 96 0.3 W 26 37 14 20 1020.4 1020.5 0.4
04/04:12pm 10.5 5.2 9.9 96 0.3 WNW 28 37 15 20 1020.3 1020.4 0.4
04/04:00pm 10.5 5.6 9.9 96 0.3 WNW 26 33 14 18 1020.4 1020.5 0.4
04/03:57pm 10.6 6.1 10.0 96 0.3 W 24 33 13 18 1020.5 1020.6 0.4
04/03:30pm 10.5 6.0 9.9 96 0.3 W 24 32 13 17 1020.6 1020.7 0.4
04/03:18pm 10.6 6.4 9.8 95 0.4 W 22 30 12 16 1020.7 1020.8 0.0
04/03:09pm 10.6 5.3 9.8 95 0.4 W 28 35 15 19 1020.5 1020.6 0.0
04/03:00pm 10.5 4.7 9.6 94 0.5 W 30 39 16 21 1020.2 1020.3 0.0
04/02:55pm 10.5 4.7 9.4 93 0.6 W 30 39 16 21 1020.1 1020.2 0.0
04/02:44pm 10.8 5.4 9.4 91 0.7 W 28 41 15 22 1020.0 1020.1 0.0
04/02:30pm 11.4 5.2 9.3 87 1.1 W 32 43 17 23 1019.7 1019.8 0.0
04/02:25pm 11.5 5.2 9.1 85 1.2 W 32 41 17 22 1019.6 1019.7 0.0
04/02:08pm 11.2 5.4 9.3 88 1.0 W 30 39 16 21 1019.7 1019.8 0.0
04/02:07pm 11.1 5.2 9.2 88 1.0 W 30 43 16 23 1019.7 1019.8 0.0
04/02:00pm 11.2 5.4 9.6 90 0.8 W 30 43 16 23 1019.8 1019.9 0.0
04/01:30pm 11.2 5.4 9.3 88 1.0 W 30 46 16 25 1020.1 1020.2 0.0
04/01:21pm 10.7 4.8 9.0 89 0.8 W 30 39 16 21 1020.2 1020.3 0.0
04/01:00pm 11.0 4.7 8.8 86 1.1 W 32 44 17 24 1020.3 1020.4 0.0
04/12:49pm 10.7 3.8 8.8 88 0.9 W 35 46 19 25 1020.4 1020.5 0.0
04/12:30pm 9.7 3.2 8.3 91 0.7 WNW 32 46 17 25 1020.8 1020.9 0.0
04/12:13pm 9.0 4.5 8.4 96 0.3 WNW 22 30 12 16 1021.4 1021.5 0.0
04/12:00pm 8.6 3.2 8.0 96 0.3 WNW 26 33 14 18 1021.6 1021.7 0.0
04/11:56am 8.5 3.5 7.9 96 0.3 WNW 24 32 13 17 1021.7 1021.8 0.0
04/11:30am 8.3 3.2 7.5 95 0.4 W 24 33 13 18 1021.7 1021.8 0.0
04/11:00am 8.3 3.1 7.4 94 0.4 W 24 32 13 17 1022.1 1022.2 0.0
04/10:30am 8.2 3.8 7.3 94 0.4 W 20 30 11 16 1021.9 1022.0 0.0
04/10:00am 7.9 3.9 6.7 92 0.6 W 17 26 9 14 1022.1 1022.2 0.0
04/09:34am 7.6 3.2 6.7 94 0.4 WNW 19 26 10 14 1022.0 1022.1 0.0
04/09:30am 7.5 2.9 6.6 94 0.4 WNW 20 26 11 14 1022.0 1022.1 0.0
04/09:21am 7.4 2.4 6.5 94 0.4 WNW 22 33 12 18 1022.1 1022.2 0.0
04/09:00am 7.2 2.2 6.5 95 0.3 WNW 22 28 12 15 1022.1 1022.2 9.6
04/08:33am 6.9 1.5 6.2 95 0.3 WNW 24 32 13 17 1022.1 1022.2 9.6
04/08:30am 6.9 1.5 6.2 95 0.3 WNW 24 32 13 17 1022.0 1022.1 9.6
04/08:19am 7.0 1.2 6.1 94 0.4 WNW 26 37 14 20 1021.9 1022.0 9.6
04/08:00am 7.1 1.2 5.9 92 0.5 WNW 26 35 14 19 1022.1 1022.2 9.6
04/07:57am 7.1 1.2 5.9 92 0.5 WNW 26 35 14 19 1022.1 1022.2 9.6
04/07:30am 7.1 1.6 5.7 91 0.6 WNW 24 33 13 18 1021.8 1021.9 9.6
04/07:00am 7.0 1.5 5.8 92 0.5 WNW 24 32 13 17 1021.8 1021.9 9.6
04/06:30am 6.7 1.2 5.8 94 0.4 WNW 24 30 13 16 1021.5 1021.6 9.6
04/06:00am 6.3 1.5 5.6 95 0.3 W 20 28 11 15 1021.6 1021.7 9.6
04/05:30am 6.7 2.0 6.0 95 0.3 W 20 28 11 15 1021.4 1021.5 9.6
04/05:00am 6.5 0.9 5.6 94 0.4 WNW 24 35 13 19 1021.3 1021.4 9.6
04/04:30am 6.1 0.5 5.4 95 0.3 W 24 33 13 18 1021.3 1021.4 9.6
04/04:00am 6.2 0.2 5.5 95 0.3 W 26 33 14 18 1021.1 1021.2 9.6
04/03:30am 6.2 0.6 5.5 95 0.3 W 24 30 13 16 1021.2 1021.3 9.6
04/03:00am 6.3 1.1 5.6 95 0.3 W 22 30 12 16 1021.5 1021.6 9.6
04/02:30am 6.4 0.9 5.7 95 0.3 W 24 33 13 18 1021.4 1021.5 9.6
04/02:00am 6.1 0.9 5.5 96 0.3 WNW 22 30 12 16 1021.2 1021.3 9.4
04/01:30am 5.8 0.9 5.2 96 0.3 WNW 20 26 11 14 1021.0 1021.1 9.4
04/01:00am 5.7 1.0 5.1 96 0.3 WNW 19 24 10 13 1021.1 1021.2 9.4
04/12:30am 5.8 1.1 5.1 95 0.3 W 19 24 10 13 1021.3 1021.4 9.4
04/12:08am 5.7 1.3 5.0 95 0.3 W 17 24 9 13 1021.1 1021.2 9.4
04/12:00am 6.0 1.3 5.3 95 0.3 W 19 24 10 13 1021.2 1021.3 9.4
 
Date/Time
EST
Temp
°C
App
Temp
°C
Dew
Point
°C
Rel
Hum
%
Delta-T
°C
Wind Press
QNH
hPa
Press
MSL
hPa
Rain since
9am
mm
Dir  Spd
km/h
Gust
km/h
Spd
kts
Gust
kts
03/11:53pm 6.0 1.3 5.1 94 0.4 W 19 24 10 13 1021.1 1021.2 9.4
03/11:30pm 5.9 0.6 4.9 93 0.4 WNW 22 28 12 15 1021.1 1021.2 9.2
03/11:00pm 5.7 -0.1 4.5 92 0.5 WNW 24 30 13 16 1020.9 1021.0 9.2

Other formats

Comma delimited format used in spreadsheet applications
http://www.bom.gov.au/fwo/IDV60801/IDV60801.94891.axf

JavaScript Object Notation format (JSON) in row-major order
http://www.bom.gov.au/fwo/IDV60801/IDV60801.94891.json

Data quality

Most of these data are generated automatically and are frequently updated. Quality checks on data are not normally performed. It is possible for incorrect values to appear. Refer to information at About Latest Weather Observations and please check the disclaimer before using these data.